Time;durP1;ratioP1;P1;durP2;ratioP2;P2;SDS_P1;SDS_P2;PMS_P1;PMS_P2;Temp;Humidity;BMP_temperature;BMP_pressure;BME280_temperature;BME280_humidity;BME280_pressure;Samples;Min_cycle;Max_cycle;Signal;HPM_P1;HPM_P2
2022/02/07 00:05:59;;;;;;;3.77;2.07;;;5.80;99.90;;;;;;5055971;28;20336;-90
2022/02/07 00:08:24;;;;;;;3.30;1.20;;;6.00;99.90;;;;;;5046588;28;20382;-91
2022/02/07 00:10:50;;;;;;;0.30;0.30;;;6.00;99.90;;;;;;5056402;28;20193;-90
2022/02/07 00:13:18;;;;;;;1.50;0.97;;;5.90;99.90;;;;;;5046605;28;20229;-92
2022/02/07 00:15:44;;;;;;;2.37;0.83;;;5.80;99.90;;;;;;5063555;28;20362;-92
2022/02/07 00:18:10;;;;;;;0.60;0.60;;;5.90;99.90;;;;;;5050447;28;20232;-90
2022/02/07 00:20:36;;;;;;;2.37;1.20;;;5.90;99.90;;;;;;5058084;28;20566;-91
2022/02/07 00:23:05;;;;;;;3.93;1.00;;;5.90;99.90;;;;;;5059613;28;20182;-92
2022/02/07 00:25:31;;;;;;;0.60;0.60;;;5.90;99.90;;;;;;5059583;28;20182;-89
2022/02/07 00:27:57;;;;;;;2.90;0.67;;;6.10;99.90;;;;;;5058753;28;21008;-92
2022/02/07 00:30:23;;;;;;;1.97;1.37;;;6.00;99.90;;;;;;5060207;28;20285;-91
2022/02/07 00:32:49;;;;;;;3.13;1.33;;;6.00;99.90;;;;;;5060880;28;20224;-91
2022/02/07 00:35:18;;;;;;;6.77;1.70;;;6.10;99.90;;;;;;5058415;28;20585;-89
2022/02/07 00:37:46;;;;;;;3.97;0.93;;;6.30;99.90;;;;;;5058180;28;20205;-92
2022/02/07 00:41:13;;;;;;;2.17;0.63;;;6.20;99.90;;;;;;5057189;28;20240;-93
2022/02/07 00:43:15;;;;;;;6.60;1.43;;;5.90;99.90;;;;;;5032359;28;20554;-90
2022/02/07 00:45:51;;;;;;;1.20;0.63;;;5.70;99.90;;;;;;5030673;28;20222;-91
2022/02/07 00:48:19;;;;;;;0.33;0.33;;;5.70;99.90;;;;;;5051276;28;20327;-90
2022/02/07 00:50:45;;;;;;;3.33;1.07;;;5.70;99.90;;;;;;5058966;28;20753;-91
2022/02/07 00:53:13;;;;;;;9.30;1.13;;;5.70;99.90;;;;;;5049595;28;20221;-92
2022/02/07 00:55:39;;;;;;;0.90;0.60;;;5.80;99.90;;;;;;5059924;28;20273;-93
2022/02/07 00:58:07;;;;;;;1.00;0.40;;;5.80;99.90;;;;;;5059442;28;20243;-90
2022/02/07 01:00:34;;;;;;;0.87;0.50;;;5.90;99.90;;;;;;5049111;28;20344;-91
2022/02/07 01:03:00;;;;;;;1.60;0.60;;;6.00;99.90;;;;;;5059408;28;20264;-91
2022/02/07 01:05:27;;;;;;;1.60;0.73;;;6.10;99.90;;;;;;5049878;28;20209;-90
2022/02/07 01:07:54;;;;;;;1.80;1.00;;;6.20;99.90;;;;;;5041090;28;20277;-90
2022/02/07 01:13:30;;;;;;;3.63;1.67;;;6.20;99.90;;;;;;5056033;28;20245;-92
2022/02/07 01:16:09;;;;;;;2.37;1.17;;;6.30;99.90;;;;;;5048550;28;20256;-90
2022/02/07 01:24:04;;;;;;;0.60;0.50;;;6.10;99.90;;;;;;5059679;28;20222;-93
2022/02/07 01:57:00;;;;;;;2.00;1.10;;;6.30;99.90;;;;;;4981182;28;20624;-92
2022/02/07 01:59:26;;;;;;;0.93;0.67;;;6.40;99.90;;;;;;5014964;28;20218;-94
2022/02/07 02:01:52;;;;;;;0.30;0.30;;;6.40;99.90;;;;;;5015823;28;20189;-95
2022/02/07 02:04:26;;;;;;;0.40;0.40;;;6.30;99.90;;;;;;5031562;28;20667;-94
2022/02/07 02:06:54;;;;;;;2.43;0.57;;;6.40;99.90;;;;;;5059085;28;20232;-94
2022/02/07 02:09:21;;;;;;;2.57;0.57;;;6.40;99.90;;;;;;5059301;28;20707;-91
2022/02/07 02:11:47;;;;;;;0.20;0.20;;;6.40;99.90;;;;;;5059648;28;20242;-93
2022/02/07 02:14:24;;;;;;;0.43;0.43;;;6.40;99.90;;;;;;5060353;28;20220;-94
2022/02/07 02:36:18;;;;;;;0.83;0.83;;;6.40;99.90;;;;;;5057575;28;20219;-92
2022/02/07 02:45:21;;;;;;;14.97;1.93;;;6.30;99.90;;;;;;5059008;28;20268;-92
2022/02/07 02:47:19;;;;;;;2.13;0.97;;;6.30;99.90;;;;;;5059409;28;20728;-93
2022/02/07 02:49:49;;;;;;;4.73;2.03;;;6.50;99.90;;;;;;5059076;28;20257;-93
2022/02/07 02:52:15;;;;;;;3.73;0.93;;;6.60;99.90;;;;;;5049204;28;20221;-93
2022/02/07 02:54:41;;;;;;;2.57;0.97;;;6.50;99.90;;;;;;5054610;28;20218;-92
2022/02/07 02:57:07;;;;;;;1.03;0.30;;;6.30;99.90;;;;;;5053058;28;20252;-92
2022/02/07 02:59:33;;;;;;;4.40;1.23;;;6.20;99.90;;;;;;5052465;28;20774;-94
2022/02/07 03:02:01;;;;;;;4.53;1.27;;;6.30;99.90;;;;;;5053387;28;20194;-92
2022/02/07 03:04:27;;;;;;;5.00;1.50;;;6.40;99.90;;;;;;5044966;28;20213;-94
2022/02/07 03:06:55;;;;;;;1.80;1.33;;;6.60;99.90;;;;;;5052214;28;20555;-91
2022/02/07 03:09:23;;;;;;;0.50;0.50;;;6.60;99.90;;;;;;5053729;28;20217;-90
2022/02/07 03:11:52;;;;;;;4.63;1.70;;;6.60;99.90;;;;;;5064040;28;20237;-90
2022/02/07 03:14:33;;;;;;;3.20;1.03;;;6.60;99.90;;;;;;5046735;28;20225;-93
2022/02/07 03:16:59;;;;;;;5.00;1.07;;;6.70;99.90;;;;;;5049842;28;20190;-91
2022/02/07 03:19:25;;;;;;;1.03;0.40;;;6.70;99.90;;;;;;5059640;28;20185;-93
2022/02/07 03:21:51;;;;;;;1.53;1.10;;;6.70;99.90;;;;;;5048019;28;20246;-93
2022/02/07 03:24:17;;;;;;;1.27;1.13;;;6.80;99.90;;;;;;5056830;28;20692;-93
2022/02/07 03:26:45;;;;;;;2.33;1.43;;;6.90;99.90;;;;;;5048866;28;20250;-92
2022/02/07 03:29:13;;;;;;;1.33;1.03;;;6.90;99.90;;;;;;5055409;28;20279;-92
2022/02/07 03:31:39;;;;;;;3.63;1.50;;;6.90;99.90;;;;;;5057496;28;20189;-92
2022/02/07 03:34:09;;;;;;;2.33;1.37;;;7.00;99.90;;;;;;5057377;28;20250;-90
2022/02/07 03:36:35;;;;;;;2.97;0.93;;;7.00;99.90;;;;;;5040275;28;20252;-91
2022/02/07 03:39:05;;;;;;;1.30;1.20;;;6.90;99.90;;;;;;5048219;28;20208;-93
2022/02/07 03:41:30;;;;;;;1.00;0.60;;;6.90;99.90;;;;;;5056092;28;20237;-91
2022/02/07 03:43:56;;;;;;;4.80;2.67;;;6.90;99.90;;;;;;5047221;28;20194;-93
2022/02/07 03:46:22;;;;;;;3.93;1.53;;;6.80;99.90;;;;;;5058854;28;20201;-94
2022/02/07 03:48:48;;;;;;;5.43;1.37;;;6.80;99.90;;;;;;5056033;28;20244;-90
2022/02/07 03:51:17;;;;;;;4.13;0.90;;;6.80;99.90;;;;;;5054797;28;20221;-93
2022/02/07 03:53:45;;;;;;;5.27;1.07;;;6.80;99.90;;;;;;5057191;28;20234;-94
2022/02/07 03:56:11;;;;;;;3.30;0.80;;;6.90;99.90;;;;;;5055862;28;21144;-95
2022/02/07 03:58:37;;;;;;;3.30;0.93;;;6.90;99.90;;;;;;5056077;28;20193;-95
2022/02/07 04:01:06;;;;;;;5.73;2.33;;;6.90;99.90;;;;;;5057374;28;20229;-92
2022/02/07 04:03:35;;;;;;;2.70;1.03;;;6.90;99.90;;;;;;5057438;28;20608;-92
2022/02/07 04:06:08;;;;;;;0.73;0.73;;;6.90;99.90;;;;;;5055568;28;20221;-93
2022/02/07 04:08:40;;;;;;;1.13;0.90;;;6.80;99.90;;;;;;5048222;28;20218;-92
2022/02/07 04:11:31;;;;;;;2.50;0.67;;;6.80;99.90;;;;;;5055340;28;20198;-93
2022/02/07 04:13:59;;;;;;;1.23;1.13;;;6.80;99.90;;;;;;5054654;28;20218;-91
2022/02/07 04:16:35;;;;;;;1.37;1.00;;;6.70;99.90;;;;;;5056758;28;20975;-91
2022/02/07 04:19:13;;;;;;;1.80;1.70;;;6.70;99.90;;;;;;5055406;28;20248;-92
2022/02/07 04:21:43;;;;;;;2.40;0.77;;;6.70;99.90;;;;;;5056180;28;20235;-91
2022/02/07 04:24:12;;;;;;;3.60;0.90;;;6.80;99.90;;;;;;5057377;28;20217;-92
2022/02/07 04:26:38;;;;;;;2.10;1.43;;;6.70;99.90;;;;;;5054527;28;20213;-90
2022/02/07 04:29:04;;;;;;;3.00;1.73;;;6.70;99.90;;;;;;5050481;28;20316;-92
2022/02/07 04:31:33;;;;;;;1.40;1.30;;;6.70;99.90;;;;;;5056940;28;20209;-90
2022/02/07 04:33:59;;;;;;;0.50;0.50;;;6.70;99.90;;;;;;5047097;28;20220;-91
2022/02/07 04:36:25;;;;;;;0.77;0.57;;;6.80;99.90;;;;;;5057017;28;20225;-91
2022/02/07 04:38:50;;;;;;;7.03;2.57;;;6.80;99.90;;;;;;5055477;28;20860;-92
2022/02/07 04:41:16;;;;;;;4.03;1.23;;;6.90;99.90;;;;;;5051885;28;20691;-92
2022/02/07 04:43:53;;;;;;;2.77;0.50;;;6.90;99.90;;;;;;5053275;28;20765;-91
2022/02/07 04:49:17;;;;;;;2.90;1.50;;;7.00;99.90;;;;;;5032889;28;20337;-90
2022/02/07 05:15:51;;;;;;;15.83;1.33;;;5.80;99.90;;;;;;5057683;28;20253;-92
2022/02/07 05:18:20;;;;;;;0.73;0.73;;;5.70;99.90;;;;;;5043516;28;20260;-92
2022/02/07 05:20:49;;;;;;;0.77;0.67;;;5.70;99.90;;;;;;5050498;28;20274;-92
2022/02/07 05:23:15;;;;;;;0.63;0.63;;;5.80;99.90;;;;;;5057766;28;20574;-92
2022/02/07 05:25:43;;;;;;;0.30;0.30;;;5.90;99.90;;;;;;5058583;28;20195;-90
2022/02/07 05:28:11;;;;;;;0.67;0.43;;;5.90;99.90;;;;;;5041292;28;20347;-93
2022/02/07 05:30:37;;;;;;;0.63;0.37;;;5.90;99.90;;;;;;5058407;28;20310;-91
2022/02/07 05:33:03;;;;;;;0.50;0.50;;;5.90;99.90;;;;;;5049796;28;20752;-93
2022/02/07 05:35:29;;;;;;;0.20;0.20;;;5.90;99.90;;;;;;5056969;28;20685;-91
2022/02/07 05:37:55;;;;;;;0.40;0.40;;;5.90;99.90;;;;;;5056918;28;20236;-93
2022/02/07 05:40:42;;;;;;;0.30;0.30;;;5.80;99.90;;;;;;5049306;28;20232;-94
2022/02/07 05:43:09;;;;;;;0.27;0.27;;;5.90;99.90;;;;;;5059097;28;20245;-93
2022/02/07 05:45:35;;;;;;;0.20;0.20;;;5.90;99.90;;;;;;5056232;28;20299;-91
2022/02/07 05:48:01;;;;;;;3.90;0.80;;;5.90;99.90;;;;;;5056961;28;20264;-93
2022/02/07 05:50:27;;;;;;;2.23;1.07;;;5.90;99.90;;;;;;5056650;28;20222;-90
2022/02/07 05:52:53;;;;;;;5.63;1.80;;;6.00;99.90;;;;;;5053051;28;20200;-93
2022/02/07 05:55:19;;;;;;;0.63;0.63;;;6.10;99.90;;;;;;5047606;28;20178;-91
2022/02/07 05:57:45;;;;;;;0.30;0.30;;;6.20;99.90;;;;;;5065362;28;20213;-89
2022/02/07 06:00:11;;;;;;;5.23;1.70;;;6.30;99.90;;;;;;5056941;28;20221;-90
2022/02/07 06:02:37;;;;;;;11.67;2.33;;;6.50;99.90;;;;;;5056232;28;20225;-90
2022/02/07 06:05:12;;;;;;;1.27;1.27;;;6.60;99.90;;;;;;5058973;28;20202;-88
2022/02/07 06:07:41;;;;;;;0.97;0.47;;;6.60;99.90;;;;;;5073008;28;20190;-89
2022/02/07 06:10:07;;;;;;;0.60;0.60;;;6.50;99.90;;;;;;5056019;28;20221;-90
2022/02/07 06:12:38;;;;;;;4.57;1.33;;;6.50;99.90;;;;;;5058002;28;20708;-90
2022/02/07 06:15:06;;;;;;;3.10;1.37;;;6.50;99.90;;;;;;5055955;28;20217;-91
2022/02/07 06:17:31;;;;;;;0.30;0.30;;;6.50;99.90;;;;;;5072776;28;20239;-90
2022/02/07 06:19:59;;;;;;;1.90;0.60;;;6.50;99.90;;;;;;5057757;28;20662;-91
2022/02/07 06:22:27;;;;;;;0.10;0.10;;;6.50;99.90;;;;;;5059279;28;20185;-90
2022/02/07 06:24:53;;;;;;;3.77;2.40;;;6.40;99.90;;;;;;5056351;28;20217;-90
2022/02/07 06:27:23;;;;;;;0.30;0.30;;;6.50;99.90;;;;;;5056720;28;20244;-93
2022/02/07 06:29:51;;;;;;;0.47;0.47;;;6.40;99.90;;;;;;5073979;28;20248;-93
2022/02/07 06:32:17;;;;;;;0.20;0.20;;;6.40;99.90;;;;;;5048724;28;20237;-92
2022/02/07 06:34:45;;;;;;;4.00;0.57;;;6.30;99.90;;;;;;5048979;28;20217;-89
2022/02/07 06:37:11;;;;;;;1.57;1.33;;;6.40;99.90;;;;;;5055748;28;20245;-93
2022/02/07 06:39:36;;;;;;;22.57;0.67;;;6.30;99.90;;;;;;5047703;28;20240;-93
2022/02/07 06:42:06;;;;;;;0.20;0.20;;;6.30;99.90;;;;;;5057982;28;20287;-92
2022/02/07 06:44:32;;;;;;;1.00;0.37;;;6.40;99.90;;;;;;5048190;28;20539;-93
2022/02/07 06:47:00;;;;;;;14.00;0.97;;;6.30;99.90;;;;;;5040460;28;20197;-93
2022/02/07 06:49:26;;;;;;;0.60;0.60;;;6.40;99.90;;;;;;5049529;28;20568;-92
2022/02/07 06:51:51;;;;;;;0.90;0.90;;;6.40;99.90;;;;;;5057158;28;20228;-92
2022/02/07 06:54:17;;;;;;;10.90;1.30;;;6.40;99.90;;;;;;5059055;28;20213;-91
2022/02/07 06:56:48;;;;;;;0.20;0.20;;;6.40;99.90;;;;;;5039462;28;20398;-92
2022/02/07 06:59:18;;;;;;;0.53;0.53;;;6.40;99.90;;;;;;5059249;28;20275;-91
2022/02/07 07:01:46;;;;;;;0.70;0.67;;;6.40;99.90;;;;;;5075125;28;20209;-92
2022/02/07 07:04:13;;;;;;;0.20;0.20;;;6.40;99.90;;;;;;5055785;28;20217;-93
2022/02/07 07:06:40;;;;;;;0.83;0.83;;;6.40;99.90;;;;;;5055656;28;20347;-92
2022/02/07 07:09:10;;;;;;;7.20;3.40;;;6.40;99.90;;;;;;5040093;28;20224;-92
2022/02/07 07:11:41;;;;;;;2.27;2.07;;;6.40;99.90;;;;;;5059882;28;20255;-93
2022/02/07 07:14:17;;;;;;;8.57;1.40;;;6.40;99.90;;;;;;5065101;28;20193;-91
2022/02/07 07:16:53;;;;;;;1.13;1.13;;;6.40;99.90;;;;;;5053223;28;20205;-93
2022/02/07 07:19:26;;;;;;;0.87;0.87;;;6.30;99.90;;;;;;5055514;28;20205;-91
2022/02/07 07:22:00;;;;;;;0.80;0.23;;;6.40;99.90;;;;;;5065431;28;20228;-94
2022/02/07 07:24:27;;;;;;;1.90;1.43;;;6.40;99.90;;;;;;5074780;28;20218;-95
2022/02/07 07:26:53;;;;;;;0.30;0.30;;;6.40;99.90;;;;;;5067662;28;20263;-93
2022/02/07 07:29:25;;;;;;;6.43;1.03;;;6.40;99.90;;;;;;5057720;28;20228;-93
2022/02/07 07:31:55;;;;;;;5.40;1.63;;;6.40;99.90;;;;;;5057004;28;20198;-92
2022/02/07 07:34:22;;;;;;;9.73;2.33;;;6.40;99.90;;;;;;5060976;28;20271;-93
2022/02/07 07:36:48;;;;;;;0.80;0.80;;;6.40;99.90;;;;;;5057143;28;20213;-88
2022/02/07 07:39:16;;;;;;;0.27;0.27;;;6.40;99.90;;;;;;5057653;28;20629;-91
2022/02/07 07:41:43;;;;;;;1.90;1.33;;;6.40;99.90;;;;;;5056645;28;20243;-93
2022/02/07 07:44:09;;;;;;;5.00;1.63;;;6.30;99.90;;;;;;5056442;28;20190;-92
2022/02/07 07:46:36;;;;;;;4.13;2.73;;;6.40;99.90;;;;;;5056350;28;20190;-93
2022/02/07 07:49:15;;;;;;;16.50;1.23;;;6.40;99.90;;;;;;5049633;28;20282;-94
2022/02/07 07:51:48;;;;;;;1.23;1.13;;;6.50;99.90;;;;;;5053748;28;20217;-93
2022/02/07 08:02:14;;;;;;;5.57;1.10;;;7.10;99.90;;;;;;5058241;28;20210;-91
2022/02/07 08:04:42;;;;;;;3.60;0.80;;;7.10;99.90;;;;;;5057596;28;20185;-94
2022/02/07 08:09:58;;;;;;;8.40;1.40;;;7.40;99.90;;;;;;5059354;28;20268;-94
2022/02/07 08:12:23;;;;;;;2.63;1.90;;;7.50;99.90;;;;;;5048319;28;20234;-93
2022/02/07 08:14:49;;;;;;;8.37;0.70;;;7.70;99.90;;;;;;5056136;28;20893;-94
2022/02/07 08:17:18;;;;;;;13.03;2.27;;;8.00;99.90;;;;;;5058084;28;20217;-91
2022/02/07 08:19:46;;;;;;;1.77;1.20;;;8.40;99.90;;;;;;5042419;28;20328;-93
2022/02/07 08:22:11;;;;;;;1.27;1.27;;;8.50;99.90;;;;;;5057276;28;20232;-91
2022/02/07 08:24:38;;;;;;;0.47;0.47;;;8.20;99.90;;;;;;5047512;28;20232;-91
2022/02/07 08:27:05;;;;;;;0.20;0.20;;;8.10;99.90;;;;;;5057142;28;20221;-92
2022/02/07 08:29:31;;;;;;;6.13;3.10;;;8.20;99.90;;;;;;5047870;28;20217;-91
2022/02/07 08:31:57;;;;;;;31.40;1.77;;;8.40;99.90;;;;;;5057686;28;20190;-92
2022/02/07 08:34:23;;;;;;;2.03;1.60;;;8.80;99.90;;;;;;5058678;28;20185;-92
2022/02/07 08:36:49;;;;;;;1.20;1.20;;;8.80;99.90;;;;;;5058039;28;20224;-94
2022/02/07 08:39:15;;;;;;;3.50;1.17;;;8.70;99.90;;;;;;5036125;28;20598;-90
2022/02/07 08:41:41;;;;;;;3.57;1.10;;;8.40;99.90;;;;;;5061996;28;20233;-90
2022/02/07 08:44:07;;;;;;;0.70;0.70;;;8.10;99.90;;;;;;5061747;28;20185;-90
2022/02/07 08:46:35;;;;;;;14.20;2.43;;;7.90;99.90;;;;;;5052624;28;20177;-93
2022/02/07 08:49:03;;;;;;;0.63;0.53;;;7.90;99.90;;;;;;5030189;28;20277;-90
2022/02/07 08:51:33;;;;;;;0.80;0.80;;;7.80;99.90;;;;;;5045149;28;20218;-93
2022/02/07 08:54:03;;;;;;;10.13;0.83;;;7.80;99.90;;;;;;5065404;28;20220;-94
2022/02/07 08:59:50;;;;;;;12.87;1.47;;;7.70;99.90;;;;;;5056267;28;20216;-91
2022/02/07 09:02:34;;;;;;;0.20;0.20;;;7.80;99.90;;;;;;5058140;28;20301;-92
2022/02/07 09:08:07;;;;;;;1.60;1.50;;;7.80;99.90;;;;;;5050879;28;20682;-92
2022/02/07 09:10:33;;;;;;;1.80;0.80;;;7.80;99.90;;;;;;5055466;28;20209;-90
2022/02/07 09:12:59;;;;;;;1.23;1.23;;;7.80;99.90;;;;;;5066818;28;20232;-92
2022/02/07 09:18:04;;;;;;;0.83;0.83;;;7.70;99.90;;;;;;5056671;28;20209;-91
2022/02/07 09:20:31;;;;;;;2.00;0.83;;;7.80;99.90;;;;;;5032021;28;20228;-91
2022/02/07 09:22:59;;;;;;;2.90;0.97;;;7.80;99.90;;;;;;5043493;28;20229;-93
2022/02/07 09:25:25;;;;;;;1.43;0.60;;;7.80;99.90;;;;;;5052162;28;20213;-88
2022/02/07 09:27:51;;;;;;;3.33;0.77;;;7.80;99.90;;;;;;5065835;28;20217;-91
2022/02/07 09:30:17;;;;;;;0.30;0.30;;;7.80;99.90;;;;;;5070148;28;20229;-94
2022/02/07 09:32:45;;;;;;;5.30;1.70;;;7.70;99.90;;;;;;5051582;28;20641;-91
2022/02/07 09:35:11;;;;;;;7.03;3.90;;;7.80;99.90;;;;;;5059994;28;20260;-91
2022/02/07 09:37:37;;;;;;;0.30;0.30;;;7.90;99.90;;;;;;5060444;28;20217;-91
2022/02/07 09:40:04;;;;;;;2.43;1.00;;;7.90;99.90;;;;;;5059833;28;20233;-92
2022/02/07 09:42:31;;;;;;;1.40;0.87;;;8.00;99.90;;;;;;5058944;28;20270;-93
2022/02/07 09:45:08;;;;;;;4.90;1.27;;;8.00;99.90;;;;;;5041551;28;20218;-93
2022/02/07 09:47:33;;;;;;;0.37;0.37;;;8.10;99.90;;;;;;5060319;28;20213;-94
2022/02/07 09:49:59;;;;;;;1.43;1.20;;;8.10;99.90;;;;;;5058172;28;20186;-94
2022/02/07 09:52:25;;;;;;;0.57;0.57;;;8.10;99.90;;;;;;5050320;28;20194;-94
2022/02/07 09:54:51;;;;;;;1.70;1.50;;;8.10;99.90;;;;;;5059799;28;20218;-93
2022/02/07 09:57:20;;;;;;;4.90;0.90;;;8.10;99.90;;;;;;5049720;28;20342;-91
2022/02/07 09:59:48;;;;;;;13.07;2.40;;;8.20;99.90;;;;;;5032916;28;20225;-92
2022/02/07 10:02:25;;;;;;;2.40;2.30;;;8.20;99.90;;;;;;5049944;28;20221;-93
2022/02/07 10:04:54;;;;;;;2.10;0.90;;;8.30;99.90;;;;;;5059325;28;20200;-91
2022/02/07 10:07:39;;;;;;;2.53;0.63;;;8.20;99.90;;;;;;5050066;28;20236;-91
2022/02/07 10:13:42;;;;;;;5.40;2.20;;;8.10;99.90;;;;;;5056513;28;20237;-92
2022/02/07 10:40:22;;;;;;;0.67;0.63;;;8.10;99.90;;;;;;5062440;28;20213;-90
2022/02/07 10:45:50;;;;;;;1.40;0.57;;;8.30;99.90;;;;;;5060219;28;20590;-92
2022/02/07 10:48:37;;;;;;;2.27;2.10;;;8.40;99.90;;;;;;5059998;28;20734;-92
2022/02/07 10:51:13;;;;;;;8.97;1.30;;;8.30;99.90;;;;;;5056709;28;20225;-91
2022/02/07 10:53:45;;;;;;;0.70;0.70;;;8.30;99.90;;;;;;5059891;28;20228;-92
2022/02/07 10:56:13;;;;;;;4.00;1.30;;;8.30;99.90;;;;;;5061544;28;20225;-91
2022/02/07 10:58:39;;;;;;;4.70;1.50;;;8.40;99.90;;;;;;5036690;28;20659;-93
2022/02/07 11:01:13;;;;;;;1.90;1.23;;;8.50;99.90;;;;;;5057543;28;20217;-93
2022/02/07 11:03:48;;;;;;;4.50;1.63;;;8.40;99.90;;;;;;5057689;28;20229;-92
2022/02/07 11:06:18;;;;;;;0.63;0.40;;;8.30;99.90;;;;;;5056790;28;20229;-93
2022/02/07 11:09:05;;;;;;;6.23;0.60;;;8.40;99.90;;;;;;5056909;28;20253;-93
2022/02/07 11:27:36;;;;;;;3.03;0.80;;;8.50;99.90;;;;;;5061504;28;20973;-91
2022/02/07 11:30:13;;;;;;;0.40;0.40;;;8.60;99.90;;;;;;5063396;28;20236;-93
2022/02/07 11:32:39;;;;;;;4.17;1.70;;;8.70;99.90;;;;;;5058591;28;20672;-94
2022/02/07 11:35:07;;;;;;;0.10;0.10;;;8.70;99.90;;;;;;5057233;28;20193;-92
2022/02/07 11:37:33;;;;;;;1.13;1.13;;;8.80;99.90;;;;;;5064462;28;20641;-93
2022/02/07 11:39:59;;;;;;;5.07;1.37;;;8.80;99.90;;;;;;5071464;28;20228;-92
2022/02/07 11:42:28;;;;;;;0.30;0.30;;;8.90;99.90;;;;;;5063844;28;20221;-93
2022/02/07 11:44:54;;;;;;;3.07;0.77;;;8.90;99.90;;;;;;5057072;28;20213;-95
2022/02/07 11:47:32;;;;;;;2.10;0.67;;;8.90;99.90;;;;;;5054875;28;20262;-95
2022/02/07 11:50:07;;;;;;;3.00;0.83;;;8.70;99.90;;;;;;5056631;28;20211;-93
2022/02/07 11:52:46;;;;;;;0.80;0.40;;;8.80;99.90;;;;;;5057040;28;20185;-92
2022/02/07 11:55:23;;;;;;;1.47;1.13;;;8.80;99.90;;;;;;5056165;28;20232;-92
2022/02/07 11:57:58;;;;;;;3.07;0.97;;;8.70;99.90;;;;;;5057017;28;20773;-93
2022/02/07 12:00:31;;;;;;;0.47;0.47;;;8.80;99.90;;;;;;5056227;28;20225;-93
2022/02/07 12:03:08;;;;;;;2.50;2.40;;;8.90;99.90;;;;;;5060089;28;20229;-93
2022/02/07 12:05:45;;;;;;;5.93;1.00;;;8.90;99.90;;;;;;5056612;28;20247;-93
2022/02/07 12:08:36;;;;;;;1.77;0.53;;;8.80;99.90;;;;;;5056356;28;20280;-92
2022/02/07 12:11:02;;;;;;;5.20;1.57;;;8.80;99.90;;;;;;5056695;28;20182;-91
2022/02/07 12:13:32;;;;;;;1.33;0.93;;;8.90;99.90;;;;;;5059326;28;20237;-93
2022/02/07 12:16:03;;;;;;;1.13;0.70;;;8.80;99.90;;;;;;5059343;28;20241;-94
2022/02/07 12:18:29;;;;;;;5.77;1.27;;;8.70;99.90;;;;;;5041609;28;20213;-93
2022/02/07 12:21:11;;;;;;;11.80;1.27;;;8.80;99.90;;;;;;5031441;28;20248;-94
2022/02/07 12:23:37;;;;;;;0.50;0.50;;;8.80;99.90;;;;;;5049833;28;20227;-93
2022/02/07 12:26:16;;;;;;;1.33;0.80;;;8.90;99.90;;;;;;5038613;28;20589;-92
2022/02/07 12:31:19;;;;;;;11.03;0.67;;;8.90;99.90;;;;;;5054125;28;20218;-93
2022/02/07 12:33:52;;;;;;;4.23;1.30;;;8.90;99.90;;;;;;5054089;28;20319;-96
2022/02/07 12:36:19;;;;;;;0.30;0.30;;;8.80;99.90;;;;;;5054452;28;20232;-95
2022/02/07 12:38:45;;;;;;;4.93;0.60;;;8.80;99.90;;;;;;5047153;28;20336;-93
2022/02/07 12:41:14;;;;;;;4.43;0.77;;;8.70;99.90;;;;;;5047110;28;20329;-93
2022/02/07 12:43:44;;;;;;;12.67;0.57;;;8.70;99.90;;;;;;5056515;28;20561;-93
2022/02/07 12:46:15;;;;;;;5.50;0.90;;;8.60;99.90;;;;;;5056166;28;20228;-91
2022/02/07 12:48:50;;;;;;;3.17;0.77;;;8.60;99.90;;;;;;5047181;28;20217;-93
2022/02/07 12:51:19;;;;;;;4.97;1.57;;;8.60;99.90;;;;;;5055617;28;20236;-93
2022/02/07 12:53:46;;;;;;;6.60;0.40;;;8.70;99.90;;;;;;5061547;28;20240;-93
2022/02/07 12:56:12;;;;;;;3.17;0.83;;;8.80;99.90;;;;;;5047994;28;21010;-94
2022/02/07 12:58:43;;;;;;;0.50;0.50;;;8.90;99.90;;;;;;5049950;28;20201;-95
2022/02/07 13:01:35;;;;;;;0.60;0.60;;;8.90;99.90;;;;;;5056722;28;20228;-93
2022/02/07 13:04:04;;;;;;;1.37;1.00;;;8.80;99.90;;;;;;5056207;28;20251;-95
2022/02/07 13:06:35;;;;;;;2.13;0.53;;;8.80;99.90;;;;;;5057391;28;20233;-93
2022/02/07 13:09:13;;;;;;;0.30;0.30;;;8.70;99.90;;;;;;5054716;28;20228;-94
2022/02/07 13:11:46;;;;;;;0.43;0.30;;;8.60;99.90;;;;;;5054890;28;20245;-94
2022/02/07 13:14:12;;;;;;;0.30;0.20;;;8.60;99.90;;;;;;5048751;28;20249;-95
2022/02/07 13:16:39;;;;;;;5.17;0.87;;;8.60;99.90;;;;;;5055601;28;20213;-94
2022/02/07 13:19:19;;;;;;;1.50;1.40;;;8.70;99.90;;;;;;5057659;28;20217;-93
2022/02/07 13:21:48;;;;;;;0.40;0.40;;;8.70;99.90;;;;;;5055475;28;20376;-92
2022/02/07 13:24:23;;;;;;;3.87;0.80;;;8.40;99.90;;;;;;5057897;28;20217;-91
2022/02/07 13:26:51;;;;;;;1.07;0.90;;;8.20;99.90;;;;;;5061728;28;20251;-93
2022/02/07 13:29:20;;;;;;;5.93;1.70;;;8.10;99.90;;;;;;5059514;28;20221;-95
2022/02/07 13:31:52;;;;;;;2.63;0.93;;;8.10;99.90;;;;;;5078854;28;20305;-93
2022/02/07 13:34:21;;;;;;;0.40;0.40;;;8.10;99.90;;;;;;5062510;28;20682;-93
2022/02/07 13:36:49;;;;;;;0.30;0.30;;;8.20;99.90;;;;;;5062437;28;20283;-93
2022/02/07 13:39:17;;;;;;;2.10;1.80;;;8.20;99.90;;;;;;5066352;28;20222;-92
2022/02/07 13:41:43;;;;;;;2.77;1.80;;;8.20;99.90;;;;;;5053465;28;20310;-92
2022/02/07 13:44:10;;;;;;;1.13;1.13;;;8.30;99.90;;;;;;5059890;28;20197;-92
2022/02/07 13:46:37;;;;;;;3.17;0.43;;;8.20;99.90;;;;;;5063273;28;20209;-94
2022/02/07 13:49:05;;;;;;;5.50;0.70;;;8.20;99.90;;;;;;5066274;28;20584;-93
2022/02/07 13:51:31;;;;;;;0.40;0.40;;;8.20;99.90;;;;;;5072624;28;20336;-92
2022/02/07 13:53:58;;;;;;;11.90;1.17;;;8.20;99.90;;;;;;5074681;28;20320;-95
2022/02/07 13:56:30;;;;;;;1.03;0.40;;;8.20;99.90;;;;;;5059856;28;20214;-94
2022/02/07 13:59:10;;;;;;;0.60;0.53;;;8.30;99.90;;;;;;5059795;28;20194;-91
2022/02/07 14:01:36;;;;;;;8.03;1.70;;;8.20;99.90;;;;;;5058415;28;20213;-92
2022/02/07 14:04:02;;;;;;;0.40;0.40;;;8.30;99.90;;;;;;5057785;28;20218;-92
2022/02/07 14:06:30;;;;;;;3.03;0.93;;;8.30;99.90;;;;;;5056991;28;20233;-91
2022/02/07 14:09:09;;;;;;;1.70;0.73;;;8.40;99.90;;;;;;5056837;28;20680;-92
2022/02/07 14:11:35;;;;;;;1.93;1.13;;;8.20;99.90;;;;;;5048813;28;20727;-89
2022/02/07 14:14:04;;;;;;;2.00;0.40;;;8.30;99.90;;;;;;5054649;28;20668;-93
2022/02/07 14:16:32;;;;;;;0.70;0.70;;;8.30;99.90;;;;;;5054600;28;20189;-93
2022/02/07 14:19:02;;;;;;;0.30;0.30;;;8.30;99.90;;;;;;5054692;28;20214;-94
2022/02/07 14:21:31;;;;;;;1.60;0.50;;;8.40;99.90;;;;;;5061548;28;20260;-95
2022/02/07 14:24:04;;;;;;;3.00;2.83;;;8.40;99.90;;;;;;5054605;28;20217;-93
2022/02/07 14:26:36;;;;;;;0.20;0.20;;;8.40;99.90;;;;;;5058219;28;20703;-93
2022/02/07 14:29:04;;;;;;;1.47;1.13;;;8.40;99.90;;;;;;5056466;28;20209;-92
2022/02/07 14:31:35;;;;;;;0.30;0.30;;;8.20;99.90;;;;;;5055370;28;20288;-92
2022/02/07 14:34:03;;;;;;;3.90;1.80;;;8.10;99.90;;;;;;5059069;28;20440;-93
2022/02/07 14:36:32;;;;;;;0.10;0.10;;;8.10;99.90;;;;;;5051678;28;20238;-94
2022/02/07 14:39:01;;;;;;;6.10;1.00;;;8.10;99.90;;;;;;5063061;28;20231;-93
2022/02/07 14:41:27;;;;;;;1.87;0.40;;;8.10;99.90;;;;;;5062742;28;21033;-95
2022/02/07 14:43:59;;;;;;;0.57;0.57;;;8.10;99.90;;;;;;5059492;28;20197;-94
2022/02/07 14:46:33;;;;;;;0.30;0.30;;;8.10;99.90;;;;;;5057187;28;21054;-91
2022/02/07 14:48:59;;;;;;;0.30;0.30;;;8.00;99.90;;;;;;5058017;28;20221;-92
2022/02/07 14:51:26;;;;;;;0.43;0.43;;;8.00;99.90;;;;;;5060657;28;20927;-93
2022/02/07 14:53:52;;;;;;;2.33;1.33;;;8.00;99.90;;;;;;5058868;28;20222;-95
2022/02/07 14:56:18;;;;;;;4.53;1.97;;;8.00;99.90;;;;;;5057183;28;20275;-94
2022/02/07 14:58:44;;;;;;;0.43;0.43;;;7.90;99.90;;;;;;5048412;28;20569;-91
2022/02/07 15:01:11;;;;;;;8.30;1.07;;;7.80;99.90;;;;;;5057130;28;20221;-92
2022/02/07 15:03:37;;;;;;;3.10;0.83;;;7.80;99.90;;;;;;5056359;28;20222;-92
2022/02/07 15:06:05;;;;;;;0.90;0.90;;;7.80;99.90;;;;;;5050044;28;20217;-93
2022/02/07 15:08:32;;;;;;;9.20;0.90;;;7.70;99.90;;;;;;5060362;28;20221;-94
2022/02/07 15:10:59;;;;;;;2.73;0.53;;;7.70;99.90;;;;;;5058733;28;20223;-92
2022/02/07 15:13:35;;;;;;;8.00;0.90;;;7.60;99.90;;;;;;5058716;28;20313;-90
2022/02/07 15:16:05;;;;;;;4.73;0.57;;;7.60;99.90;;;;;;5056251;28;20242;-94
2022/02/07 15:18:34;;;;;;;4.37;0.83;;;7.60;99.90;;;;;;5057203;28;21090;-95
2022/02/07 15:21:05;;;;;;;1.30;0.93;;;7.60;99.90;;;;;;5063369;28;20248;-93
2022/02/07 15:23:31;;;;;;;8.67;1.07;;;7.60;99.90;;;;;;5049291;28;20229;-93
2022/02/07 15:25:59;;;;;;;9.10;0.70;;;7.50;99.90;;;;;;5047201;28;20185;-94
2022/02/07 15:28:25;;;;;;;0.50;0.50;;;7.50;99.90;;;;;;5042973;28;20185;-93
2022/02/07 15:30:57;;;;;;;0.30;0.30;;;7.40;99.90;;;;;;5059424;28;20229;-94
2022/02/07 15:33:32;;;;;;;4.47;1.93;;;7.40;99.90;;;;;;5061372;28;20213;-93
2022/02/07 15:35:58;;;;;;;1.40;0.80;;;7.30;99.90;;;;;;5060648;28;20251;-94
2022/02/07 15:38:25;;;;;;;1.50;1.40;;;7.30;99.90;;;;;;5055584;28;20222;-95
2022/02/07 15:40:53;;;;;;;29.83;1.33;;;7.30;99.90;;;;;;5062170;28;20209;-93
2022/02/07 15:43:19;;;;;;;0.87;0.87;;;7.30;99.90;;;;;;5063017;28;20708;-93
2022/02/07 15:45:46;;;;;;;0.80;0.80;;;7.30;99.90;;;;;;5061070;28;20300;-94
2022/02/07 15:48:22;;;;;;;1.50;0.90;;;7.30;99.90;;;;;;5058868;28;20205;-93
2022/02/07 15:50:48;;;;;;;1.13;1.03;;;7.30;99.90;;;;;;5060156;28;20216;-94